Latest Weather Observations for Burketown Airport

IDQ60801

Issued at 7:02 am EST Wednesday 22 April 2015 (issued every 30 minutes, with the page automatically refreshed every 10 minutes)

About weather observations | Map of weather stations | Latest weather observations for QLD | Other Formats
Station Details ID: 029077 Name: BURKETOWN AIRPORT Lat: -17.75 Lon: 139.54 Height: 5.7 m
Data from the previous 72 hours. | See also: Recent months at Burketown Airport
Date/Time
EST
Temp
°C
App
Temp
°C
Dew
Point
Rel
Hum
%
Delta-T
°C
Wind Press
QNH
hPa
Press
MSL
hPa
Rain
since 9 am
mm
Dir
 
Spd
km/h
Gust
km/h
Spd
kts
Gust
kts
22/07:00am 19.0 13.3 0.6 29 8.1 SSE 20 28 11 15 1014.3 - 0.0
22/06:30am 19.3 12.8 0.4 28 8.4 SSE 24 32 13 17 1013.9 - 0.0
22/06:00am 19.6 13.1 0.1 27 8.6 SSE 24 32 13 17 1013.8 1013.7 0.0
22/05:30am 19.8 12.8 -0.8 25 8.9 SSE 26 33 14 18 1013.6 - 0.0
22/05:00am 20.0 13.3 -1.2 24 9.1 S 24 33 13 18 1013.6 - 0.0
22/04:30am 20.3 12.7 -2.1 22 9.5 S 28 35 15 19 1013.4 - 0.0
22/04:00am 20.6 13.3 -2.5 21 9.8 S 26 35 14 19 1013.5 - 0.0
22/03:30am 20.8 13.6 -2.3 21 9.8 SSE 26 35 14 19 1013.6 - 0.0
22/03:00am 20.7 14.7 -1.8 22 9.6 S 20 26 11 14 1013.8 1013.7 0.0
22/02:30am 21.7 14.5 -2.2 20 10.3 SSE 26 32 14 17 1013.9 - 0.0
22/02:00am 21.9 15.1 -2.0 20 10.3 SSE 24 32 13 17 1014.2 - 0.0
22/01:30am 21.9 15.9 -1.4 21 10.2 S 20 28 11 15 1014.5 - 0.0
22/01:00am 22.3 16.5 -1.7 20 10.5 SSE 19 24 10 13 1014.8 - 0.0
22/12:30am 22.7 16.3 -1.4 20 10.6 SSE 22 32 12 17 1015.0 - 0.0
22/12:00am 23.2 16.4 -1.7 19 10.9 S 24 32 13 17 1014.9 1014.8 0.0
 
Date/Time
EST
Temp
°C
App
Temp
°C
Dew
Point
Rel
Hum
%
Delta-T
°C
Wind Press
QNH
hPa
Press
MSL
hPa
Rain
since 9 am
mm
Dir
 
Spd
km/h
Gust
km/h
Spd
kts
Gust
kts
21/11:30pm 23.6 16.0 -2.1 18 11.2 S 28 37 15 20 1014.9 - 0.0
21/11:00pm 24.1 16.6 -1.7 18 11.4 S 28 41 15 22 1014.9 - 0.0
21/10:30pm 24.5 17.8 -1.3 18 11.5 S 24 32 13 17 1015.1 - 0.0
21/10:00pm 24.9 17.7 -1.8 17 11.9 S 26 32 14 17 1015.1 - 0.0
21/09:30pm 25.2 18.4 -1.6 17 12.0 S 24 32 13 17 1015.1 - 0.0
21/09:00pm 25.9 19.2 -1.0 17 12.2 S 24 32 13 17 1014.9 1014.8 0.0
21/08:30pm 26.2 19.5 -0.8 17 12.4 S 24 30 13 16 1014.6 - 0.0
21/08:00pm 27.0 19.6 -0.9 16 12.8 S 28 33 15 18 1014.1 - 0.0
21/07:30pm 27.4 20.8 -0.6 16 13.0 S 24 30 13 16 1013.9 - 0.0
21/07:00pm 27.9 21.8 0.6 17 13.0 SSE 22 30 12 16 1013.3 - 0.0
21/06:30pm 28.6 22.6 1.2 17 13.2 S 22 30 12 16 1012.9 - 0.0
21/06:00pm 29.5 22.8 3.5 19 13.1 SSE 28 33 15 18 1012.7 1012.6 0.0
21/05:30pm 30.1 23.6 4.7 20 13.2 SSE 28 39 15 21 1012.5 - 0.0
21/05:00pm 30.7 24.4 7.2 23 12.7 SSE 30 37 16 20 1012.3 - 0.0
21/04:30pm 30.8 24.9 7.3 23 12.8 SSE 28 37 15 20 1012.3 - 0.0
21/04:00pm 31.0 24.6 6.8 22 13.0 SSE 30 41 16 22 1012.3 - 0.0
21/03:30pm 31.3 24.7 7.7 23 12.9 SSE 32 43 17 23 1012.3 - 0.0
21/03:00pm 30.8 23.9 7.3 23 12.8 S 33 43 18 23 1012.5 1012.4 0.0
21/02:30pm 31.0 24.2 7.5 23 12.8 SSE 33 44 18 24 1013.0 - 0.0
21/02:00pm 31.0 25.1 7.5 23 12.8 SSE 28 37 15 20 1013.4 - 0.0
21/01:30pm 30.5 24.3 7.7 24 12.4 SSE 30 46 16 25 1013.8 - 0.0
21/01:00pm 29.6 22.6 6.9 24 12.2 S 33 48 18 26 1014.4 - 0.0
21/12:30pm 28.6 21.6 6.7 25 11.6 S 33 46 18 25 1014.9 - 0.0
21/12:00pm 28.8 21.7 6.2 24 11.9 SSE 33 50 18 27 1015.4 1015.3 0.0
21/11:30am 27.6 20.0 5.8 25 11.3 SSE 35 50 19 27 1015.9 - 0.0
21/11:00am 26.8 19.4 5.1 25 11.1 SSE 33 50 18 27 1016.3 - 0.0
21/10:34am 26.3 17.8 5.3 26 10.7 SSE 39 57 21 31 1016.7 - 0.0
21/10:30am 26.4 18.3 5.4 26 10.8 SSE 37 50 20 27 1016.7 - 0.0
21/10:00am 25.7 17.3 5.8 28 10.2 SSE 39 57 21 31 1016.7 - 0.0
21/09:49am 25.3 16.9 5.5 28 10.1 SSE 39 57 21 31 1016.9 - 0.0
21/09:30am 24.6 15.4 5.4 29 9.7 SSE 43 59 23 32 1016.8 - 0.0
21/09:19am 24.6 15.5 5.9 30 9.6 SSE 43 61 23 33 1016.7 - 0.0
21/09:00am 23.8 14.9 5.2 30 9.3 SSE 41 52 22 28 1016.6 1016.5 0.0
21/08:30am 23.1 15.2 4.1 29 9.3 SSE 35 52 19 28 1016.7 - 0.0
21/08:00am 22.6 14.4 4.6 31 8.9 SSE 37 48 20 26 1016.7 - 0.0
21/07:30am 22.1 15.0 5.5 34 8.3 SSE 32 41 17 22 1016.5 - 0.0
21/07:00am 21.8 14.9 6.5 37 7.8 SSE 32 41 17 22 1016.2 - 0.0
21/06:30am 22.1 15.2 6.3 36 8.0 SSE 32 43 17 23 1015.8 - 0.0
21/06:00am 22.2 16.1 6.4 36 8.0 S 28 37 15 20 1015.6 1015.5 0.0
21/05:30am 22.6 16.1 6.4 35 8.3 SSE 30 43 16 23 1015.3 - 0.0
21/05:00am 23.1 16.2 6.4 34 8.5 SSE 32 41 17 22 1015.2 - 0.0
21/04:30am 23.6 16.1 6.4 33 8.8 S 35 44 19 24 1014.9 - 0.0
21/04:00am 23.8 17.6 7.8 36 8.4 S 30 41 16 22 1014.6 - 0.0
21/03:30am 23.9 18.5 10.9 44 7.2 S 30 35 16 19 1014.5 - 0.0
21/03:00am 24.4 19.4 13.3 50 6.5 SSE 32 46 17 25 1014.4 1014.3 0.0
21/02:30am 24.7 20.0 13.3 49 6.6 SSE 30 41 16 22 1014.6 - 0.0
21/02:00am 24.8 20.8 13.0 47 6.8 SSE 26 35 14 19 1014.8 - 0.0
21/01:30am 25.2 20.5 13.1 47 7.0 SSE 30 44 16 24 1014.8 - 0.0
21/01:00am 25.4 21.1 13.3 47 7.1 SSE 28 37 15 20 1015.0 - 0.0
21/12:30am 25.6 21.3 13.1 46 7.3 SSE 28 35 15 19 1015.1 - 0.0
21/12:00am 25.9 21.2 13.1 45 7.5 SSE 30 41 16 22 1015.2 1015.1 0.0
 
Date/Time
EST
Temp
°C
App
Temp
°C
Dew
Point
Rel
Hum
%
Delta-T
°C
Wind Press
QNH
hPa
Press
MSL
hPa
Rain
since 9 am
mm
Dir
 
Spd
km/h
Gust
km/h
Spd
kts
Gust
kts
20/11:30pm 26.1 21.4 13.2 44 7.5 SSE 30 41 16 22 1015.1 - 0.0
20/11:00pm 26.3 21.8 12.7 43 7.9 SSE 28 35 15 19 1015.1 - 0.0
20/10:30pm 26.5 22.0 12.5 41 8.1 SSE 28 35 15 19 1015.2 - 0.0
20/10:00pm 26.7 23.0 12.7 42 8.1 SSE 24 35 13 19 1015.2 - 0.0
20/09:30pm 27.0 23.0 13.0 42 8.2 SSE 26 39 14 21 1015.1 - 0.0
20/09:00pm 27.3 23.8 13.3 42 8.2 SSE 24 35 13 19 1014.9 1014.8 0.0
20/08:30pm 27.7 23.8 13.3 41 8.5 SSE 26 35 14 19 1014.6 - 0.0
20/08:00pm 28.1 23.4 13.2 39 8.8 SSE 30 39 16 21 1014.1 - 0.0
20/07:30pm 28.6 24.3 13.3 39 9.1 SSE 28 39 15 21 1013.7 - 0.0
20/07:00pm 29.3 25.5 13.5 38 9.4 SSE 26 41 14 22 1013.2 - 0.0
20/06:30pm 29.7 25.6 13.9 38 9.5 SSE 28 37 15 20 1013.0 - 0.0
20/06:00pm 30.6 26.1 13.8 35 10.1 SSE 30 41 16 22 1012.8 1012.7 0.0
20/05:30pm 31.3 26.9 14.0 35 10.5 SSE 30 41 16 22 1012.5 - 0.0
20/05:00pm 31.7 27.0 14.4 35 10.6 SSE 32 43 17 23 1012.1 - 0.0
20/04:30pm 32.2 27.9 14.3 33 10.9 SE 30 41 16 22 1012.2 - 0.0
20/04:00pm 32.0 27.5 13.7 33 11.1 SSE 30 41 16 22 1012.2 - 0.0
20/03:30pm 33.1 28.7 14.2 32 11.6 S 30 44 16 24 1012.3 - 0.0
20/03:00pm 32.7 28.2 13.8 31 11.5 SSE 30 41 16 22 1012.6 1012.5 0.0
20/02:30pm 32.8 28.5 14.4 33 11.3 ESE 30 39 16 21 1012.9 - 0.0
20/02:00pm 32.6 27.5 13.8 32 11.4 SSE 33 46 18 25 1013.1 - 0.0
20/01:30pm 32.0 26.5 13.7 33 11.1 SSE 35 56 19 30 1013.8 - 0.0
20/01:03pm 31.5 26.3 13.3 33 10.9 SSE 33 52 18 28 1014.2 - 0.0
20/01:00pm 31.4 25.8 13.2 33 10.9 SSE 35 46 19 25 1014.3 - 0.0
20/12:30pm 31.1 25.5 13.4 34 10.6 SSE 35 52 19 28 1014.8 - 0.0
20/12:00pm 30.6 25.5 13.8 35 10.1 SSE 33 46 18 25 1015.3 1015.2 0.0
20/11:30am 29.5 23.3 13.7 38 9.5 SSE 39 46 21 25 1015.9 - 0.0
20/11:00am 28.8 22.6 13.9 40 8.9 SSE 39 54 21 29 1016.2 - 0.0
20/10:30am 27.9 21.9 13.4 40 8.6 SSE 37 54 20 29 1016.6 - 0.0
20/10:00am 27.9 22.1 13.8 42 8.4 SSE 37 46 20 25 1016.9 - 0.0
20/09:30am 26.7 20.4 13.4 43 7.8 SSE 39 54 21 29 1017.0 - 0.0
20/09:00am 25.7 20.2 13.5 46 7.1 SSE 35 46 19 25 1017.0 1016.9 0.0
20/08:49am 25.2 19.9 13.1 47 7.0 SSE 33 52 18 28 1016.8 - 0.0
20/08:30am 23.8 18.0 12.8 50 6.3 S 35 46 19 25 1016.6 - 0.0
20/08:00am 23.9 18.9 12.2 48 6.7 S 30 41 16 22 1016.6 - 0.0
20/07:30am 23.2 19.4 12.5 51 6.1 S 24 32 13 17 1016.4 - 0.0
20/07:00am 23.1 18.8 13.3 54 5.7 S 28 39 15 21 1015.9 - 0.0
20/06:30am 23.2 18.7 13.9 56 5.4 S 30 39 16 21 1015.5 - 0.0
20/06:00am 23.3 19.0 14.3 57 5.3 S 30 44 16 24 1015.4 1015.3 0.0
20/05:30am 23.5 19.2 14.5 57 5.3 S 30 41 16 22 1015.1 - 0.0
20/05:00am 23.6 18.9 14.3 56 5.5 S 32 46 17 25 1015.4 - 0.0
20/04:30am 23.7 18.7 14.1 55 5.6 S 33 43 18 23 1015.3 - 0.0
20/04:00am 23.9 19.1 14.0 54 5.8 S 32 44 17 24 1015.2 - 0.0
20/03:30am 24.2 19.4 14.0 53 6.0 SSE 32 43 17 23 1015.2 - 0.0
20/03:00am 24.5 19.4 13.7 51 6.3 SSE 33 46 18 25 1015.3 1015.2 0.0
20/02:47am 24.7 19.8 13.6 50 6.5 SSE 32 54 17 29 1015.3 - 0.0
20/02:30am 24.8 19.9 13.7 50 6.5 SSE 32 46 17 25 1015.3 - 0.0
20/02:00am 25.2 20.3 13.7 49 6.8 S 32 46 17 25 1015.4 - 0.0
20/01:30am 25.4 20.8 13.6 48 6.9 S 30 43 16 23 1015.6 - 0.0
20/01:00am 25.9 20.9 13.4 46 7.3 S 32 43 17 23 1015.7 - 0.0
20/12:30am 26.2 20.2 13.3 45 7.6 S 37 52 20 28 1015.4 - 0.0
20/12:13am 26.6 21.0 13.3 43 7.8 S 35 54 19 29 1015.6 - 0.0
20/12:00am 26.7 21.0 13.1 43 8.0 S 35 46 19 25 1015.5 1015.4 0.0
 
Date/Time
EST
Temp
°C
App
Temp
°C
Dew
Point
Rel
Hum
%
Delta-T
°C
Wind Press
QNH
hPa
Press
MSL
hPa
Rain
since 9 am
mm
Dir
 
Spd
km/h
Gust
km/h
Spd
kts
Gust
kts
19/11:30pm 27.3 21.7 13.3 42 8.2 S 35 46 19 25 1015.4 - 0.0
19/11:00pm 28.0 22.5 13.5 41 8.6 S 35 54 19 29 1015.0 - 0.0
19/10:30pm 28.8 23.5 14.2 40 8.8 S 35 56 19 30 1014.6 - 0.0
19/10:29pm 28.8 23.1 14.2 40 8.8 S 37 56 20 30 1014.6 - 0.0
19/10:00pm 30.1 25.3 14.6 39 9.4 S 33 46 18 25 1014.5 - 0.0
19/09:30pm 30.5 26.3 14.6 38 9.7 S 30 37 16 20 1014.3 - 0.0
19/09:00pm 30.7 27.9 14.3 36 9.9 S 22 30 12 16 1014.0 1013.9 0.0
19/08:30pm 30.5 29.1 14.6 38 9.7 S 15 20 8 11 1013.6 - 0.0
19/08:00pm 31.0 29.1 14.2 36 10.2 S 17 20 9 11 1013.2 - 0.0
19/07:30pm 31.9 29.7 14.5 34 10.6 S 19 22 10 12 1012.7 - 0.0
19/07:00pm 32.3 29.5 14.4 33 10.9 S 22 32 12 17 1012.5 - 0.0
19/06:30pm 32.9 29.4 14.5 33 11.3 S 26 33 14 18 1012.2 - 0.0
19/06:00pm 33.9 30.6 14.9 32 11.8 S 26 32 14 17 1012.1 1012.0 0.0
19/05:30pm 34.4 30.6 14.8 30 12.1 S 28 39 15 21 1011.8 - 0.0
19/05:00pm 35.0 31.2 14.8 29 12.5 S 28 35 15 19 1011.6 - 0.0
19/04:30pm 35.4 32.2 15.2 30 12.6 SSE 26 37 14 20 1011.5 - 0.0
19/04:00pm 35.4 32.3 14.6 28 12.9 SE 24 35 13 19 1011.4 - 0.0
19/03:30pm 36.2 34.4 15.9 30 12.9 SE 20 30 11 16 1011.6 - 0.0
19/03:00pm 35.8 33.1 15.5 29 12.8 SSE 24 35 13 19 1011.9 1011.8 0.0
19/02:30pm 34.6 31.3 15.0 31 12.2 ESE 26 35 14 19 1012.3 - 0.0
19/02:00pm 34.5 31.9 15.9 33 11.7 S 24 35 13 19 1012.6 - 0.0
19/01:30pm 34.2 31.1 15.6 32 11.6 SE 26 39 14 21 1013.1 - 0.0
19/01:00pm 34.5 31.1 15.9 33 11.7 SSE 28 41 15 22 1013.6 - 0.0
19/12:30pm 33.1 29.2 15.6 35 10.9 SSE 30 41 16 22 1014.1 - 0.0
19/12:00pm 33.3 30.1 16.2 36 10.8 SE 28 37 15 20 1014.9 1014.8 0.0
19/11:30am 33.0 29.1 16.4 37 10.5 SE 32 46 17 25 1015.5 - 0.0
19/11:00am 32.0 27.5 16.3 39 9.9 SE 35 48 19 26 1016.2 - 0.0
19/10:30am 31.0 25.9 15.8 40 9.4 SE 37 48 20 26 1016.4 - 0.0
19/10:00am 30.6 25.5 15.8 40 9.2 SSE 37 52 20 28 1016.6 - 0.0
19/09:30am 29.6 25.4 16.1 44 8.4 SSE 33 50 18 27 1016.6 - 0.0
19/09:16am 28.6 23.6 16.2 47 7.7 SE 37 56 20 30 1016.6 - 0.0
19/09:00am 29.1 25.1 16.6 46 7.8 SSE 33 43 18 23 1016.5 1016.4 0.0
19/08:30am 27.7 23.7 16.6 50 6.9 SSE 33 43 18 23 1016.2 - 0.0
19/08:00am 26.6 23.1 16.5 54 6.2 SSE 30 39 16 21 1015.7 - 0.0
19/07:30am 26.0 23.4 16.0 54 6.1 S 24 32 13 17 1015.3 - 0.0

Other Formats:

Comma delimited format used in spreadsheet applications
http://www.bom.gov.au/fwo/IDQ60801/IDQ60801.94260.axf

JavaScript Object Notation format (JSON) in row-major order
http://www.bom.gov.au/fwo/IDQ60801/IDQ60801.94260.json